首页
METAR-TAF:

METAR-TAF

机场 :

Northeast Philadelphia Airport

費城, 宾夕法尼亚州, 美国

纬度: 40-04-44N, 经度: 075-00-49W, 海拔: 36米

当前天气观测

该预报发布于1小时和24分钟前的18:54 UTC
风速3节,风向多变
温度 3°C
湿度 25%
气压 1033 hPa
能見度: 16.1公里
天空无云

METAR: KPNE 211854Z VRB03KT 10SM CLR 03/M15 A3049 RMK AO2 SLP325 T00281150 $

时间: 15:18 (20:18 UTC)

预报

该预报发布于2小时和56分钟前的17:22 UTC
预报有效从21日的 18点(UTC)到 22日的 18点(UTC)
风速6节,风向西北
能見度: 10公里
天空无云
从 21日的 2300点(UTC)
风速4节,风向西转西南
能見度: 10公里
天空无云
从 22日的 1400点(UTC)
风速10节,风向西,有时为18节阵风
能見度: 10公里
天空无云

TAF: KPNE 211722Z 2118/2218 31006KT P6SM SKC FM212300 25004KT P6SM SKC FM221400 26010G18KT P6SM SKC

超过4000个机场的气象观测和天气预报(METAR&TAF报告)。

可查询的气象台以黄色和红色小点在地图上表示。

将鼠标移到小点上方,可查看气象台名称。

然后点击查看天气观测和预报。

如需切换地图:点击带黑十字的绿色按钮放大地图;点击带横线的绿色按钮缩小地图;或者点击绿色箭头查看邻近地区的地图。


METAR-TAF: